createdAt,value
2019-05-12T00:00:07.975Z,0.00
2019-05-12T00:01:08.625Z,0.00
2019-05-12T00:02:07.679Z,0.00
2019-05-12T00:03:08.422Z,0.00
2019-05-12T00:04:08.258Z,0.00
2019-05-12T00:05:08.566Z,0.00
2019-05-12T00:06:08.589Z,0.00
2019-05-12T00:07:08.559Z,0.00
2019-05-12T00:08:08.222Z,0.00
2019-05-12T00:09:08.210Z,0.00
2019-05-12T00:10:08.436Z,0.00
2019-05-12T00:11:06.114Z,0.00
2019-05-12T00:12:08.237Z,0.00
2019-05-12T00:13:08.391Z,0.00
2019-05-12T00:14:08.470Z,0.00
2019-05-12T00:15:08.164Z,0.00
2019-05-12T00:16:08.613Z,0.00
2019-05-12T00:17:08.096Z,0.00
2019-05-12T00:18:06.056Z,0.00
2019-05-12T00:19:06.027Z,0.00
2019-05-12T00:20:08.334Z,0.00
2019-05-12T00:21:08.647Z,0.00
2019-05-12T00:22:07.645Z,0.00
2019-05-12T00:23:20.804Z,0.00
2019-05-12T00:24:07.936Z,0.00
2019-05-12T00:25:05.976Z,0.00
2019-05-12T00:26:07.899Z,0.00
2019-05-12T00:27:05.933Z,0.00
2019-05-12T00:28:07.863Z,0.00
2019-05-12T00:29:07.688Z,0.00
2019-05-12T00:30:09.641Z,0.00
2019-05-12T00:31:08.257Z,0.00
2019-05-12T00:32:05.876Z,0.00
2019-05-12T00:33:05.868Z,0.00
2019-05-12T00:34:07.768Z,0.00
2019-05-12T00:35:07.815Z,0.00
2019-05-12T00:36:07.902Z,0.00
2019-05-12T00:37:08.171Z,0.00
2019-05-12T00:38:08.660Z,0.00
2019-05-12T00:39:07.952Z,0.00
2019-05-12T00:40:05.791Z,0.00
2019-05-12T00:41:05.799Z,0.00
2019-05-12T00:42:07.754Z,0.00
2019-05-12T00:43:08.453Z,0.00
2019-05-12T00:44:05.758Z,0.00
2019-05-12T00:45:07.902Z,0.00
2019-05-12T00:46:07.832Z,0.00
2019-05-12T00:47:08.037Z,0.00
2019-05-12T00:48:05.698Z,0.00
2019-05-12T00:49:08.056Z,0.00
2019-05-12T00:50:08.102Z,0.00
2019-05-12T00:51:07.631Z,0.00
2019-05-12T00:52:07.939Z,0.00
2019-05-12T00:53:05.639Z,0.00
2019-05-12T00:54:05.630Z,0.00
2019-05-12T00:55:07.920Z,0.00
2019-05-12T00:56:05.614Z,0.00
2019-05-12T00:57:07.694Z,0.00
2019-05-12T00:58:07.913Z,0.00
2019-05-12T00:59:08.120Z,0.00
2019-05-12T01:00:05.563Z,0.00
2019-05-12T01:01:07.955Z,0.00
2019-05-12T01:02:07.846Z,0.00
2019-05-12T01:03:05.539Z,0.00
2019-05-12T01:04:05.524Z,0.00
2019-05-12T01:05:05.517Z,0.00
2019-05-12T01:06:05.508Z,0.00
2019-05-12T01:07:05.494Z,0.00
2019-05-12T01:08:05.473Z,0.00
2019-05-12T01:09:05.477Z,0.00
2019-05-12T01:10:05.460Z,0.00
2019-05-12T01:11:05.476Z,0.00
2019-05-12T01:12:07.798Z,0.00
2019-05-12T01:13:05.423Z,0.00
2019-05-12T01:14:05.429Z,0.00
2019-05-12T01:15:07.397Z,0.00
2019-05-12T01:16:05.400Z,0.00
2019-05-12T01:17:05.403Z,0.00
2019-05-12T01:18:05.365Z,0.00
2019-05-12T01:19:07.768Z,0.00
2019-05-12T01:20:05.356Z,0.00
2019-05-12T01:21:07.601Z,0.00
2019-05-12T01:22:05.322Z,0.00
2019-05-12T01:23:05.315Z,0.00
2019-05-12T01:24:05.296Z,0.00
2019-05-12T01:25:05.285Z,0.00
2019-05-12T01:26:05.285Z,0.00
2019-05-12T01:27:05.283Z,0.00
2019-05-12T01:28:05.259Z,0.00
2019-05-12T01:29:05.241Z,0.00
2019-05-12T01:30:05.232Z,0.00
2019-05-12T01:31:05.223Z,0.00
2019-05-12T01:32:07.730Z,0.00
2019-05-12T01:33:05.213Z,0.00
2019-05-12T01:34:05.192Z,0.00
2019-05-12T01:35:05.184Z,0.00
2019-05-12T01:36:07.555Z,0.00
2019-05-12T01:37:05.159Z,0.00
2019-05-12T01:38:05.155Z,0.00
2019-05-12T01:39:05.137Z,0.00
2019-05-12T01:40:05.144Z,0.00
2019-05-12T01:41:05.130Z,0.00
2019-05-12T01:42:05.109Z,0.00
2019-05-12T01:43:05.088Z,0.00
2019-05-12T01:44:05.078Z,0.00
2019-05-12T01:45:05.067Z,0.00
2019-05-12T01:46:05.061Z,0.00
2019-05-12T01:47:05.049Z,0.00
2019-05-12T01:48:05.035Z,0.00
2019-05-12T01:49:05.031Z,0.00
2019-05-12T01:50:05.010Z,0.00
2019-05-12T01:51:05.010Z,0.00
2019-05-12T01:52:05.051Z,0.00
2019-05-12T01:53:04.979Z,0.00
2019-05-12T01:54:13.600Z,0.00
2019-05-12T01:55:04.958Z,0.00
2019-05-12T01:56:04.973Z,0.00
2019-05-12T01:57:04.939Z,0.00
2019-05-12T01:58:04.940Z,0.00
2019-05-12T01:59:04.911Z,0.00
2019-05-12T02:00:04.904Z,0.00
2019-05-12T02:01:04.895Z,0.00
2019-05-12T02:02:04.876Z,0.00
2019-05-12T02:03:04.874Z,0.00
2019-05-12T02:04:04.872Z,0.00
2019-05-12T02:05:04.855Z,0.00
2019-05-12T02:06:04.835Z,0.00
2019-05-12T02:07:04.841Z,0.00
2019-05-12T02:08:04.813Z,0.00
2019-05-12T02:09:04.818Z,0.00
2019-05-12T02:10:04.789Z,0.00
2019-05-12T02:11:04.817Z,0.00
2019-05-12T02:12:04.780Z,0.00
2019-05-12T02:13:04.757Z,0.00
2019-05-12T02:14:04.756Z,0.00
2019-05-12T02:15:04.766Z,0.00
2019-05-12T02:16:04.722Z,0.00
2019-05-12T02:17:04.721Z,0.00
2019-05-12T02:18:04.726Z,0.00
2019-05-12T02:19:04.696Z,0.00
2019-05-12T02:20:04.685Z,0.00
2019-05-12T02:21:04.684Z,0.00
2019-05-12T02:22:04.651Z,0.00
2019-05-12T02:23:04.667Z,0.00
2019-05-12T02:24:04.640Z,0.00
2019-05-12T02:25:04.632Z,0.00
2019-05-12T02:26:04.611Z,0.00
2019-05-12T02:27:05.535Z,0.00
2019-05-12T02:28:04.609Z,0.00
2019-05-12T02:29:04.581Z,0.00
2019-05-12T02:30:04.575Z,0.00
2019-05-12T02:31:04.561Z,0.00
2019-05-12T02:32:04.546Z,0.00
2019-05-12T02:33:05.360Z,0.00
2019-05-12T02:34:05.691Z,0.00
2019-05-12T02:35:05.724Z,0.00
2019-05-12T02:36:04.891Z,0.00
2019-05-12T02:37:05.496Z,0.00
2019-05-12T02:38:05.119Z,0.00
2019-05-12T02:39:05.339Z,0.00
2019-05-12T02:40:04.869Z,0.00
2019-05-12T02:41:04.807Z,0.00
2019-05-12T02:42:05.251Z,0.00
2019-05-12T02:43:05.687Z,0.00
2019-05-12T02:44:05.245Z,0.00
2019-05-12T02:45:05.551Z,0.00
2019-05-12T02:46:04.980Z,0.00
2019-05-12T02:47:05.246Z,0.00
2019-05-12T02:48:05.270Z,0.00
2019-05-12T02:49:05.073Z,0.00
2019-05-12T02:50:05.310Z,0.00
2019-05-12T02:51:05.522Z,0.00
2019-05-12T02:52:05.081Z,0.00
2019-05-12T02:53:05.222Z,0.00
2019-05-12T02:54:05.548Z,0.00
2019-05-12T02:55:05.885Z,0.00
2019-05-12T02:56:05.184Z,0.00
2019-05-12T02:57:04.573Z,0.00
2019-05-12T02:58:05.334Z,0.00
2019-05-12T02:59:05.160Z,0.00
2019-05-12T03:00:05.208Z,0.00
2019-05-12T03:01:05.367Z,0.00
2019-05-12T03:02:05.289Z,0.00
2019-05-12T03:03:05.362Z,0.00
2019-05-12T03:04:05.777Z,0.00
2019-05-12T03:05:05.543Z,0.00
2019-05-12T03:06:05.398Z,0.00
2019-05-12T03:07:06.497Z,0.00
2019-05-12T03:08:04.995Z,0.00
2019-05-12T03:09:04.952Z,0.00
2019-05-12T03:10:05.170Z,0.00
2019-05-12T03:11:06.117Z,0.00
2019-05-12T03:12:06.000Z,0.00
2019-05-12T03:13:04.534Z,0.00
2019-05-12T03:14:04.187Z,0.00
2019-05-12T03:15:05.483Z,0.00
2019-05-12T03:16:04.960Z,0.00
2019-05-12T03:17:04.809Z,0.00
2019-05-12T03:18:06.079Z,0.00
2019-05-12T03:19:05.199Z,0.00
2019-05-12T03:20:04.931Z,0.00
2019-05-12T03:21:05.551Z,0.00
2019-05-12T03:22:05.047Z,0.00
2019-05-12T03:23:05.820Z,0.00
2019-05-12T03:24:06.094Z,0.00
2019-05-12T03:25:11.330Z,0.00
2019-05-12T03:26:05.154Z,0.00
2019-05-12T03:27:04.436Z,0.00
2019-05-12T03:28:07.360Z,0.00
2019-05-12T03:29:05.822Z,0.00
2019-05-12T03:30:09.862Z,0.00
2019-05-12T03:31:07.764Z,0.00
2019-05-12T03:32:08.347Z,0.00
2019-05-12T03:33:09.318Z,0.00
2019-05-12T03:34:09.801Z,0.00
2019-05-12T03:35:08.837Z,0.00
2019-05-12T03:36:08.918Z,0.00
2019-05-12T03:37:07.805Z,0.00
2019-05-12T03:38:04.519Z,0.00
2019-05-12T03:39:04.437Z,0.00
2019-05-12T03:40:05.494Z,0.00
2019-05-12T03:41:05.341Z,4.00
2019-05-12T03:42:05.150Z,4.00
2019-05-12T03:43:05.491Z,4.00
2019-05-12T03:44:05.146Z,0.00
2019-05-12T03:45:04.720Z,0.00
2019-05-12T03:46:05.227Z,4.00
2019-05-12T03:47:04.977Z,4.00
2019-05-12T03:48:04.406Z,4.00
2019-05-12T03:49:05.373Z,4.00
2019-05-12T03:50:04.496Z,0.00
2019-05-12T03:51:05.711Z,4.00
2019-05-12T03:52:05.065Z,4.00
2019-05-12T03:53:09.553Z,4.00
2019-05-12T03:54:04.748Z,8.00
2019-05-12T03:55:05.576Z,4.00
2019-05-12T03:56:04.374Z,4.00
2019-05-12T03:57:04.535Z,8.00
2019-05-12T03:58:04.560Z,8.00
2019-05-12T03:59:04.860Z,8.00
2019-05-12T04:00:05.156Z,8.00
2019-05-12T04:01:04.668Z,8.00
2019-05-12T04:02:04.765Z,8.00
2019-05-12T04:03:04.755Z,12.00
2019-05-12T04:04:05.097Z,12.00
2019-05-12T04:05:05.324Z,8.00
2019-05-12T04:06:04.724Z,8.00
2019-05-12T04:07:05.098Z,12.00
2019-05-12T04:08:05.573Z,12.00
2019-05-12T04:09:04.741Z,8.00
2019-05-12T04:10:05.305Z,12.00
2019-05-12T04:11:05.254Z,12.00
2019-05-12T04:12:05.269Z,12.00
2019-05-12T04:13:04.576Z,12.00
2019-05-12T04:14:05.523Z,16.00
2019-05-12T04:15:05.102Z,16.00
2019-05-12T04:16:04.917Z,12.00
2019-05-12T04:17:04.675Z,12.00
2019-05-12T04:18:05.429Z,12.00
2019-05-12T04:19:05.387Z,16.00
2019-05-12T04:20:04.720Z,16.00
2019-05-12T04:21:05.567Z,16.00
2019-05-12T04:22:05.550Z,16.00
2019-05-12T04:23:06.005Z,16.00
2019-05-12T04:24:05.467Z,16.00
2019-05-12T04:25:06.040Z,16.00
2019-05-12T04:26:11.358Z,16.00
2019-05-12T04:27:05.381Z,16.00
2019-05-12T04:28:04.805Z,20.00
2019-05-12T04:29:05.041Z,20.00
2019-05-12T04:30:05.407Z,16.00
2019-05-12T04:31:05.517Z,16.00
2019-05-12T04:32:05.098Z,16.00
2019-05-12T04:33:04.717Z,16.00
2019-05-12T04:34:05.196Z,16.00
2019-05-12T04:35:04.830Z,16.00
2019-05-12T04:36:05.610Z,16.00
2019-05-12T04:37:04.557Z,16.00
2019-05-12T04:38:04.434Z,20.00
2019-05-12T04:39:04.308Z,20.00
2019-05-12T04:40:05.412Z,20.00
2019-05-12T04:41:05.858Z,20.00
2019-05-12T04:42:05.287Z,20.00
2019-05-12T04:43:05.839Z,24.00
2019-05-12T04:44:05.871Z,20.00
2019-05-12T04:45:04.470Z,20.00
2019-05-12T04:46:05.044Z,24.00
2019-05-12T04:47:05.577Z,24.00
2019-05-12T04:48:05.146Z,24.00
2019-05-12T04:49:05.225Z,20.00
2019-05-12T04:50:05.342Z,20.00
2019-05-12T04:51:04.982Z,24.00
2019-05-12T04:52:05.331Z,24.00
2019-05-12T04:53:06.037Z,24.00
2019-05-12T04:54:05.848Z,24.00
2019-05-12T04:55:04.704Z,28.00
2019-05-12T04:56:10.548Z,24.00
2019-05-12T04:57:04.190Z,28.00
2019-05-12T04:58:04.416Z,28.00
2019-05-12T04:59:04.935Z,32.00
2019-05-12T05:00:05.059Z,32.00
2019-05-12T05:01:06.038Z,32.00
2019-05-12T05:02:05.466Z,32.00
2019-05-12T05:03:05.070Z,32.00
2019-05-12T05:04:05.329Z,32.00
2019-05-12T05:05:05.338Z,32.00
2019-05-12T05:06:04.498Z,36.00
2019-05-12T05:07:04.467Z,36.00
2019-05-12T05:08:04.324Z,32.00
2019-05-12T05:09:05.003Z,32.00
2019-05-12T05:10:04.723Z,32.00
2019-05-12T05:11:04.079Z,36.00
2019-05-12T05:12:04.566Z,36.00
2019-05-12T05:13:05.142Z,36.00
2019-05-12T05:14:04.144Z,36.00
2019-05-12T05:15:05.193Z,40.00
2019-05-12T05:16:05.472Z,40.00
2019-05-12T05:17:05.664Z,44.00
2019-05-12T05:18:06.307Z,44.00
2019-05-12T05:19:03.613Z,44.00
2019-05-12T05:20:04.076Z,44.00
2019-05-12T05:21:04.679Z,44.00
2019-05-12T05:22:04.341Z,48.00
2019-05-12T05:23:03.517Z,52.00
2019-05-12T05:24:03.800Z,52.00
2019-05-12T05:25:04.269Z,52.00
2019-05-12T05:26:03.287Z,48.00
2019-05-12T05:27:04.449Z,56.00
2019-05-12T05:28:03.959Z,56.00
2019-05-12T05:29:04.299Z,56.00
2019-05-12T05:30:03.999Z,56.00
2019-05-12T05:31:03.517Z,60.00
2019-05-12T05:32:03.511Z,60.00
2019-05-12T05:33:04.623Z,64.00
2019-05-12T05:34:04.811Z,60.00
2019-05-12T05:35:03.878Z,68.00
2019-05-12T05:36:03.473Z,64.00
2019-05-12T05:37:02.487Z,68.00
2019-05-12T05:38:04.497Z,68.00
2019-05-12T05:39:04.294Z,64.00
2019-05-12T05:40:03.928Z,68.00
2019-05-12T05:41:05.955Z,68.00
2019-05-12T05:42:04.459Z,68.00
2019-05-12T05:43:03.740Z,68.00
2019-05-12T05:44:03.110Z,68.00
2019-05-12T05:45:04.653Z,68.00
2019-05-12T05:46:07.602Z,68.00
2019-05-12T05:47:04.363Z,68.00
2019-05-12T05:48:07.442Z,68.00
2019-05-12T05:49:04.207Z,68.00
2019-05-12T05:50:04.599Z,68.00
2019-05-12T05:51:05.907Z,68.00
2019-05-12T05:52:03.532Z,68.00
2019-05-12T05:53:03.755Z,72.00
2019-05-12T05:54:03.952Z,68.00
2019-05-12T05:55:05.862Z,68.00
2019-05-12T05:56:04.079Z,68.00
2019-05-12T05:57:03.169Z,68.00
2019-05-12T05:58:05.730Z,68.00
2019-05-12T05:59:04.506Z,68.00
2019-05-12T06:00:07.285Z,68.00
2019-05-12T06:01:03.821Z,68.00
2019-05-12T06:02:04.708Z,68.00
2019-05-12T06:03:05.339Z,68.00
2019-05-12T06:04:04.480Z,68.00
2019-05-12T06:05:04.329Z,64.00
2019-05-12T06:06:10.865Z,64.00
2019-05-12T06:07:04.090Z,64.00
2019-05-12T06:08:04.240Z,68.00
2019-05-12T06:09:03.694Z,72.00
2019-05-12T06:10:04.099Z,76.00
2019-05-12T06:11:04.350Z,76.00
2019-05-12T06:12:05.157Z,72.00
2019-05-12T06:13:04.132Z,72.00
2019-05-12T06:14:11.073Z,72.00
2019-05-12T06:15:04.022Z,72.00
2019-05-12T06:16:04.240Z,76.00
2019-05-12T06:17:04.176Z,80.00
2019-05-12T06:18:03.608Z,84.00
2019-05-12T06:19:03.492Z,84.00
2019-05-12T06:20:04.225Z,88.00
2019-05-12T06:21:03.444Z,84.00
2019-05-12T06:22:03.985Z,88.00
2019-05-12T06:23:03.804Z,84.00
2019-05-12T06:24:03.520Z,84.00
2019-05-12T06:25:04.935Z,80.00
2019-05-12T06:26:04.387Z,84.00
2019-05-12T06:27:14.338Z,80.00
2019-05-12T06:28:04.134Z,84.00
2019-05-12T06:29:04.227Z,88.00
2019-05-12T06:30:06.027Z,92.00
2019-05-12T06:31:04.119Z,92.00
2019-05-12T06:32:06.147Z,96.00
2019-05-12T06:33:04.046Z,96.00
2019-05-12T06:34:06.337Z,96.00
2019-05-12T06:35:04.492Z,100.00
2019-05-12T06:36:03.766Z,100.00
2019-05-12T06:37:05.159Z,100.00
2019-05-12T06:38:04.538Z,100.00
2019-05-12T06:39:04.248Z,100.00
2019-05-12T06:40:03.564Z,100.00
2019-05-12T06:41:03.609Z,96.00
2019-05-12T06:42:11.219Z,100.00
2019-05-12T06:43:04.126Z,104.00
2019-05-12T06:44:03.685Z,108.00
2019-05-12T06:45:03.779Z,108.00
2019-05-12T06:46:03.647Z,112.00
2019-05-12T06:47:06.932Z,112.00
2019-05-12T06:48:03.372Z,112.00
2019-05-12T06:49:11.990Z,112.00
2019-05-12T06:50:03.692Z,116.00
2019-05-12T06:51:03.886Z,120.00
2019-05-12T06:52:06.327Z,116.00
2019-05-12T06:53:01.639Z,124.00
2019-05-12T06:54:07.382Z,120.00
2019-05-12T06:55:03.778Z,120.00
2019-05-12T06:56:01.597Z,120.00
2019-05-12T06:57:18.759Z,120.00
2019-05-12T06:58:01.586Z,124.00
2019-05-12T06:59:09.803Z,124.00
2019-05-12T07:00:01.576Z,128.00
2019-05-12T07:01:02.389Z,128.00
2019-05-12T07:02:03.381Z,128.00
2019-05-12T07:03:03.773Z,128.00
2019-05-12T07:04:06.742Z,132.00
2019-05-12T07:05:04.126Z,132.00
2019-05-12T07:06:03.953Z,132.00
2019-05-12T07:07:03.474Z,132.00
2019-05-12T07:08:04.022Z,136.00
2019-05-12T07:09:09.036Z,140.00
2019-05-12T07:10:07.991Z,140.00
2019-05-12T07:11:03.694Z,144.00
2019-05-12T07:12:03.658Z,144.00
2019-05-12T07:13:05.314Z,144.00
2019-05-12T07:14:07.671Z,144.00
2019-05-12T07:15:03.579Z,140.00
2019-05-12T07:16:03.592Z,136.00
2019-05-12T07:17:03.371Z,136.00
2019-05-12T07:18:01.354Z,136.00
2019-05-12T07:19:09.697Z,136.00
2019-05-12T07:20:01.328Z,136.00
2019-05-12T07:21:01.311Z,140.00
2019-05-12T07:22:03.425Z,140.00
2019-05-12T07:23:03.512Z,144.00
2019-05-12T07:24:06.809Z,148.00
2019-05-12T07:25:01.278Z,144.00
2019-05-12T07:26:04.820Z,136.00
2019-05-12T07:27:04.376Z,132.00
2019-05-12T07:28:06.702Z,124.00
2019-05-12T07:29:01.228Z,124.00
2019-05-12T07:30:01.218Z,128.00
2019-05-12T07:31:03.681Z,128.00
2019-05-12T07:32:01.243Z,128.00
2019-05-12T07:33:01.563Z,128.00
2019-05-12T07:34:04.392Z,132.00
2019-05-12T07:35:03.751Z,132.00
2019-05-12T07:36:04.128Z,136.00
2019-05-12T07:37:01.141Z,140.00
2019-05-12T07:38:01.135Z,144.00
2019-05-12T07:39:03.895Z,152.00
2019-05-12T07:40:01.114Z,164.00
2019-05-12T07:41:08.846Z,180.00
2019-05-12T07:42:03.487Z,172.00
2019-05-12T07:43:03.787Z,172.00
2019-05-12T07:44:03.520Z,160.00
2019-05-12T07:45:01.043Z,160.00
2019-05-12T07:46:06.528Z,156.00
2019-05-12T07:47:03.389Z,156.00
2019-05-12T07:48:08.189Z,156.00
2019-05-12T07:49:00.998Z,164.00
2019-05-12T07:50:00.987Z,164.00
2019-05-12T07:51:00.994Z,168.00
2019-05-12T07:52:03.410Z,172.00
2019-05-12T07:53:03.746Z,152.00
2019-05-12T07:54:00.950Z,148.00
2019-05-12T07:55:00.930Z,148.00
2019-05-12T07:56:00.926Z,148.00
2019-05-12T07:57:08.746Z,160.00
2019-05-12T07:58:10.251Z,164.00
2019-05-12T07:59:00.908Z,168.00
2019-05-12T08:00:03.062Z,164.00
2019-05-12T08:01:04.098Z,176.00
2019-05-12T08:02:00.860Z,188.00
2019-05-12T08:03:08.118Z,164.00
2019-05-12T08:04:01.495Z,172.00
2019-05-12T08:05:00.826Z,152.00
2019-05-12T08:06:02.254Z,148.00
2019-05-12T08:07:00.809Z,164.00
2019-05-12T08:08:06.489Z,168.00
2019-05-12T08:09:00.784Z,172.00
2019-05-12T08:10:00.767Z,180.00
2019-05-12T08:11:00.751Z,192.00
2019-05-12T08:12:00.744Z,188.00
2019-05-12T08:13:00.963Z,172.00
2019-05-12T08:14:00.747Z,180.00
2019-05-12T08:15:05.466Z,180.00
2019-05-12T08:16:00.702Z,184.00
2019-05-12T08:17:01.975Z,176.00
2019-05-12T08:18:00.677Z,168.00
2019-05-12T08:19:00.667Z,200.00
2019-05-12T08:20:00.650Z,192.00
2019-05-12T08:21:00.650Z,192.00
2019-05-12T08:22:00.638Z,196.00
2019-05-12T08:23:05.876Z,196.00
2019-05-12T08:24:00.618Z,196.00
2019-05-12T08:25:00.594Z,192.00
2019-05-12T08:26:03.688Z,192.00
2019-05-12T08:27:03.873Z,192.00
2019-05-12T08:28:12.590Z,192.00
2019-05-12T08:29:00.565Z,200.00
2019-05-12T08:30:01.489Z,212.00
2019-05-12T08:31:00.543Z,228.00
2019-05-12T08:32:00.529Z,232.00
2019-05-12T08:33:03.828Z,212.00
2019-05-12T08:34:00.496Z,224.00
2019-05-12T08:35:00.504Z,216.00
2019-05-12T08:36:03.167Z,180.00
2019-05-12T08:37:00.464Z,220.00
2019-05-12T08:38:00.467Z,176.00
2019-05-12T08:39:05.414Z,180.00
2019-05-12T08:40:05.973Z,180.00
2019-05-12T08:41:00.415Z,176.00
2019-05-12T08:42:00.412Z,180.00
2019-05-12T08:43:08.172Z,176.00
2019-05-12T08:44:00.409Z,176.00
2019-05-12T08:45:00.374Z,168.00
2019-05-12T08:46:09.935Z,160.00
2019-05-12T08:47:00.353Z,148.00
2019-05-12T08:48:00.339Z,136.00
2019-05-12T08:49:02.448Z,124.00
2019-05-12T08:50:00.315Z,116.00
2019-05-12T08:51:07.085Z,112.00
2019-05-12T08:52:00.481Z,112.00
2019-05-12T08:53:00.278Z,112.00
2019-05-12T08:54:02.814Z,108.00
2019-05-12T08:55:00.258Z,104.00
2019-05-12T08:56:06.571Z,104.00
2019-05-12T08:57:01.277Z,132.00
2019-05-12T08:58:00.222Z,108.00
2019-05-12T08:59:00.234Z,124.00
2019-05-12T09:00:02.757Z,116.00
2019-05-12T09:01:00.202Z,116.00
2019-05-12T09:02:05.262Z,116.00
2019-05-12T09:03:00.189Z,120.00
2019-05-12T09:04:05.199Z,124.00
2019-05-12T09:05:00.148Z,132.00
2019-05-12T09:06:00.136Z,184.00
2019-05-12T09:07:00.123Z,156.00
2019-05-12T09:08:00.134Z,172.00
2019-05-12T09:09:00.106Z,208.00
2019-05-12T09:10:00.117Z,192.00
2019-05-12T09:11:00.081Z,228.00
2019-05-12T09:12:00.062Z,224.00
2019-05-12T09:13:00.057Z,224.00
2019-05-12T09:14:01.207Z,224.00
2019-05-12T09:15:00.064Z,232.00
2019-05-12T09:16:00.029Z,236.00
2019-05-12T09:17:02.766Z,236.00
2019-05-12T09:17:59.998Z,236.00
2019-05-12T09:18:59.989Z,236.00
2019-05-12T09:20:03.567Z,244.00
2019-05-12T09:21:00.082Z,244.00
2019-05-12T09:22:05.475Z,240.00
2019-05-12T09:23:00.836Z,240.00
2019-05-12T09:23:59.941Z,200.00
2019-05-12T09:25:04.284Z,232.00
2019-05-12T09:25:59.937Z,180.00
2019-05-12T09:27:07.015Z,176.00
2019-05-12T09:27:59.882Z,188.00
2019-05-12T09:28:59.894Z,180.00
2019-05-12T09:30:07.973Z,176.00
2019-05-12T09:30:59.856Z,168.00
2019-05-12T09:32:05.300Z,164.00
2019-05-12T09:32:59.831Z,160.00
2019-05-12T09:34:03.516Z,164.00
2019-05-12T09:34:59.813Z,168.00
2019-05-12T09:35:59.798Z,176.00
2019-05-12T09:37:01.053Z,180.00
2019-05-12T09:38:02.889Z,180.00
2019-05-12T09:39:01.841Z,184.00
2019-05-12T09:39:59.754Z,180.00
2019-05-12T09:41:01.069Z,180.00
2019-05-12T09:41:59.729Z,180.00
2019-05-12T09:43:00.191Z,176.00
2019-05-12T09:44:01.706Z,172.00
2019-05-12T09:45:00.084Z,164.00
2019-05-12T09:45:59.701Z,212.00
2019-05-12T09:46:59.681Z,196.00
2019-05-12T09:48:04.930Z,188.00
2019-05-12T09:48:59.653Z,140.00
2019-05-12T09:49:59.645Z,128.00
2019-05-12T09:51:02.172Z,128.00
2019-05-12T09:51:59.616Z,140.00
2019-05-12T09:53:00.785Z,124.00
2019-05-12T09:53:59.641Z,132.00
2019-05-12T09:54:59.584Z,200.00
2019-05-12T09:55:59.584Z,216.00
2019-05-12T09:56:59.908Z,228.00
2019-05-12T09:57:59.563Z,184.00
2019-05-12T09:59:02.908Z,192.00
2019-05-12T09:59:59.699Z,196.00
2019-05-12T10:00:59.524Z,196.00
2019-05-12T10:01:59.509Z,200.00
2019-05-12T10:03:00.814Z,196.00
2019-05-12T10:03:59.492Z,200.00
2019-05-12T10:05:00.840Z,200.00
2019-05-12T10:05:59.463Z,196.00
2019-05-12T10:06:59.466Z,192.00
2019-05-12T10:07:59.449Z,228.00
2019-05-12T10:08:59.492Z,244.00
2019-05-12T10:09:59.427Z,236.00
2019-05-12T10:10:59.414Z,208.00
2019-05-12T10:12:00.514Z,184.00
2019-05-12T10:12:59.397Z,176.00
2019-05-12T10:14:00.292Z,216.00
2019-05-12T10:14:59.368Z,172.00
2019-05-12T10:16:05.000Z,180.00
2019-05-12T10:16:59.342Z,244.00
2019-05-12T10:18:00.237Z,184.00
2019-05-12T10:18:59.337Z,184.00
2019-05-12T10:19:59.329Z,236.00
2019-05-12T10:20:59.304Z,184.00
2019-05-12T10:21:59.730Z,164.00
2019-05-12T10:22:59.280Z,160.00
2019-05-12T10:24:01.889Z,152.00
2019-05-12T10:24:59.262Z,200.00
2019-05-12T10:26:01.365Z,140.00
2019-05-12T10:26:59.241Z,136.00
2019-05-12T10:28:03.018Z,136.00
2019-05-12T10:29:13.333Z,140.00
2019-05-12T10:30:03.304Z,152.00
2019-05-12T10:30:59.192Z,156.00
2019-05-12T10:31:59.179Z,160.00
2019-05-12T10:32:59.170Z,180.00
2019-05-12T10:33:59.162Z,228.00
2019-05-12T10:34:59.168Z,244.00
2019-05-12T10:36:04.147Z,260.00
2019-05-12T10:36:59.125Z,276.00
2019-05-12T10:38:00.261Z,276.00
2019-05-12T10:38:59.133Z,280.00
2019-05-12T10:39:59.095Z,284.00
2019-05-12T10:40:59.085Z,272.00
2019-05-12T10:41:59.080Z,256.00
2019-05-12T10:42:59.070Z,228.00
2019-05-12T10:43:59.043Z,188.00
2019-05-12T10:44:59.048Z,196.00
2019-05-12T10:45:59.026Z,212.00
2019-05-12T10:46:59.019Z,216.00
2019-05-12T10:47:59.004Z,276.00
2019-05-12T10:48:59.005Z,280.00
2019-05-12T10:49:58.989Z,268.00
2019-05-12T10:50:58.972Z,280.00
2019-05-12T10:51:58.961Z,272.00
2019-05-12T10:52:58.975Z,240.00
2019-05-12T10:54:09.127Z,208.00
2019-05-12T10:54:58.928Z,220.00
2019-05-12T10:55:58.927Z,184.00
2019-05-12T10:56:58.920Z,168.00
2019-05-12T10:58:01.553Z,156.00
2019-05-12T10:58:58.897Z,176.00
2019-05-12T10:59:58.887Z,204.00
2019-05-12T11:01:04.177Z,200.00
2019-05-12T11:01:58.867Z,204.00
2019-05-12T11:03:01.414Z,184.00
2019-05-12T11:03:58.827Z,212.00
2019-05-12T11:04:58.826Z,192.00
2019-05-12T11:06:02.383Z,208.00
2019-05-12T11:06:58.799Z,224.00
2019-05-12T11:08:00.198Z,220.00
2019-05-12T11:08:58.795Z,216.00
2019-05-12T11:10:02.994Z,212.00
2019-05-12T11:11:01.168Z,204.00
2019-05-12T11:11:58.741Z,200.00
2019-05-12T11:12:59.117Z,200.00
2019-05-12T11:13:58.722Z,200.00
2019-05-12T11:15:01.229Z,168.00
2019-05-12T11:15:58.714Z,220.00
2019-05-12T11:17:02.017Z,220.00
2019-05-12T11:17:58.680Z,224.00
2019-05-12T11:19:00.206Z,216.00
2019-05-12T11:19:58.655Z,212.00
2019-05-12T11:20:58.658Z,192.00
2019-05-12T11:21:58.632Z,152.00
2019-05-12T11:22:58.621Z,224.00
2019-05-12T11:23:58.640Z,220.00
2019-05-12T11:24:58.601Z,220.00
2019-05-12T11:25:58.667Z,220.00
2019-05-12T11:26:58.601Z,156.00
2019-05-12T11:27:58.670Z,200.00
2019-05-12T11:28:58.565Z,220.00
2019-05-12T11:29:58.544Z,208.00
2019-05-12T11:30:58.535Z,220.00
2019-05-12T11:31:58.529Z,224.00
2019-05-12T11:32:59.830Z,232.00
2019-05-12T11:33:58.505Z,236.00
2019-05-12T11:34:58.516Z,244.00
2019-05-12T11:35:58.479Z,252.00
2019-05-12T11:36:58.472Z,256.00
2019-05-12T11:37:58.459Z,268.00
2019-05-12T11:38:58.459Z,280.00
2019-05-12T11:39:58.436Z,212.00
2019-05-12T11:40:58.426Z,300.00
2019-05-12T11:41:58.424Z,300.00
2019-05-12T11:43:01.018Z,292.00
2019-05-12T11:43:59.002Z,288.00
2019-05-12T11:44:58.391Z,276.00
2019-05-12T11:45:58.377Z,272.00
2019-05-12T11:46:58.364Z,268.00
2019-05-12T11:48:05.174Z,264.00
2019-05-12T11:48:58.337Z,264.00
2019-05-12T11:50:03.436Z,260.00
2019-05-12T11:50:58.316Z,252.00
2019-05-12T11:52:04.407Z,256.00
2019-05-12T11:52:58.295Z,256.00
2019-05-12T11:53:58.290Z,260.00
2019-05-12T11:54:58.289Z,256.00
2019-05-12T11:56:02.377Z,264.00
2019-05-12T11:56:58.257Z,248.00
2019-05-12T11:58:00.459Z,276.00
2019-05-12T11:58:58.238Z,296.00
2019-05-12T12:00:01.806Z,316.00
2019-05-12T12:01:03.562Z,332.00
2019-05-12T12:01:58.212Z,344.00
2019-05-12T12:02:58.184Z,344.00
2019-05-12T12:03:58.178Z,340.00
2019-05-12T12:04:58.180Z,340.00
2019-05-12T12:05:58.159Z,244.00
2019-05-12T12:06:58.140Z,340.00
2019-05-12T12:07:58.129Z,360.00
2019-05-12T12:08:58.122Z,356.00
2019-05-12T12:09:59.563Z,360.00
2019-05-12T12:10:58.097Z,208.00
2019-05-12T12:12:05.560Z,200.00
2019-05-12T12:12:58.078Z,204.00
2019-05-12T12:14:00.258Z,236.00
2019-05-12T12:14:58.040Z,348.00
2019-05-12T12:16:00.496Z,300.00
2019-05-12T12:16:58.046Z,252.00
2019-05-12T12:17:58.015Z,236.00
2019-05-12T12:19:02.870Z,456.00
2019-05-12T12:19:58.046Z,464.00
2019-05-12T12:21:04.085Z,484.00
2019-05-12T12:21:57.979Z,500.00
2019-05-12T12:23:00.091Z,496.00
2019-05-12T12:23:57.974Z,468.00
2019-05-12T12:25:03.112Z,512.00
2019-05-12T12:25:57.929Z,516.00
2019-05-12T12:26:57.921Z,508.00
2019-05-12T12:27:57.922Z,392.00
2019-05-12T12:28:57.897Z,552.00
2019-05-12T12:29:57.887Z,544.00
2019-05-12T12:31:01.103Z,324.00
2019-05-12T12:31:57.884Z,212.00
2019-05-12T12:33:00.365Z,256.00
2019-05-12T12:33:57.840Z,376.00
2019-05-12T12:35:00.943Z,188.00
2019-05-12T12:36:00.650Z,204.00
2019-05-12T12:36:57.811Z,604.00
2019-05-12T12:37:57.802Z,616.00
2019-05-12T12:38:57.789Z,648.00
2019-05-12T12:39:57.784Z,688.00
2019-05-12T12:40:57.772Z,428.00
2019-05-12T12:42:00.366Z,252.00
2019-05-12T12:42:57.746Z,276.00
2019-05-12T12:43:57.736Z,256.00
2019-05-12T12:44:58.774Z,552.00
2019-05-12T12:45:57.719Z,252.00
2019-05-12T12:47:00.437Z,272.00
2019-05-12T12:47:57.688Z,576.00